Wetterdaten: Woche 06.07.15 - 12.07.15 (KW28)
Datum Zeit Temperatur Luftfeuchte Luftdruck Niederschlag Windrichtung Sonnenschein Solar Wind
06.07.2015 00:00 27,0 C 57 % 1012,1 hPa 0,0 l/m W 0,00 h 0 W/m 14,0 km/h (3 Bft)
06.07.2015 01:00 25,5 C 64 % 1013,3 hPa 0,0 l/m NW 0,00 h 0 W/m 15,3 km/h (3 Bft)
06.07.2015 02:00 24,2 C 67 % 1014,1 hPa 0,8 l/m NW 0,00 h 0 W/m 15,4 km/h (3 Bft)
06.07.2015 03:00 20,7 C 87 % 1014,9 hPa 0,0 l/m W 0,00 h 0 W/m 4,3 km/h (1 Bft)
06.07.2015 04:00 20,0 C 93 % 1016,0 hPa 0,2 l/m N 0,00 h 0 W/m 1,3 km/h (1 Bft)
06.07.2015 05:00 19,9 C 95 % 1016,7 hPa 0,0 l/m W 0,00 h 0 W/m 0,7 km/h (0 Bft)
06.07.2015 06:00 19,9 C 96 % 1017,3 hPa 0,2 l/m N 0,00 h 12 W/m 0,3 km/h (0 Bft)
06.07.2015 07:00 20,3 C 90 % 1017,5 hPa 0,0 l/m NW 0,08 h 110 W/m 3,2 km/h (1 Bft)
06.07.2015 08:00 21,1 C 82 % 1017,8 hPa 0,0 l/m N-NW 0,17 h 193 W/m 7,8 km/h (2 Bft)
06.07.2015 09:00 22,0 C 80 % 1017,9 hPa 0,0 l/m N 0,58 h 314 W/m 6,7 km/h (2 Bft)
06.07.2015 10:00 22,8 C 79 % 1017,6 hPa 0,0 l/m NO 0,50 h 461 W/m 7,9 km/h (2 Bft)
06.07.2015 11:00 23,6 C 76 % 1017,5 hPa 0,0 l/m N-NO 0,58 h 556 W/m 7,8 km/h (2 Bft)
06.07.2015 12:00 25,5 C 70 % 1017,0 hPa 0,0 l/m O-NO 0,83 h 770 W/m 7,2 km/h (2 Bft)
06.07.2015 13:00 26,0 C 69 % 1016,6 hPa 0,0 l/m SW 0,42 h 500 W/m 9,1 km/h (2 Bft)
06.07.2015 14:00 25,9 C 69 % 1016,4 hPa 0,0 l/m O-SO 0,08 h 268 W/m 3,9 km/h (1 Bft)
06.07.2015 15:00 27,1 C 65 % 1015,8 hPa 0,0 l/m SO 0,58 h 585 W/m 4,5 km/h (1 Bft)
06.07.2015 16:00 28,7 C 60 % 1015,5 hPa 0,0 l/m SO 0,75 h 573 W/m 7,8 km/h (2 Bft)
06.07.2015 17:00 28,1 C 60 % 1014,9 hPa 0,0 l/m S-SO 0,08 h 192 W/m 7,3 km/h (2 Bft)
06.07.2015 18:00 28,1 C 60 % 1014,5 hPa 0,0 l/m SO 0,58 h 245 W/m 7,6 km/h (2 Bft)
06.07.2015 19:00 27,5 C 63 % 1014,4 hPa 0,0 l/m SW 1,00 h 200 W/m 8,7 km/h (2 Bft)
06.07.2015 20:00 25,3 C 71 % 1014,4 hPa 0,0 l/m N 0,08 h 37 W/m 1,7 km/h (1 Bft)
06.07.2015 21:00 23,1 C 81 % 1014,5 hPa 0,0 l/m N 0,08 h 7 W/m 0,1 km/h (0 Bft)
06.07.2015 22:00 21,3 C 86 % 1014,7 hPa 0,0 l/m N 0,00 h 0 W/m 0,3 km/h (0 Bft)
06.07.2015 23:00 20,4 C 89 % 1014,6 hPa 0,0 l/m N 0,00 h 0 W/m 0,0 km/h (0 Bft)
07.07.2015 00:00 19,8 C 91 % 1014,4 hPa 0,0 l/m N 0,00 h 0 W/m 0,0 km/h (0 Bft)
07.07.2015 01:00 19,2 C 93 % 1014,1 hPa 0,0 l/m N 0,00 h 0 W/m 0,3 km/h (0 Bft)
07.07.2015 02:00 18,5 C 94 % 1013,7 hPa 0,0 l/m N 0,00 h 0 W/m 0,0 km/h (0 Bft)
07.07.2015 03:00 17,9 C 95 % 1013,5 hPa 0,0 l/m N 0,00 h 0 W/m 0,3 km/h (0 Bft)
07.07.2015 04:00 17,6 C 97 % 1013,1 hPa 0,0 l/m N 0,00 h 0 W/m 0,0 km/h (0 Bft)
07.07.2015 05:00 17,4 C 97 % 1012,8 hPa 0,0 l/m N 0,00 h 8 W/m 0,0 km/h (0 Bft)
07.07.2015 06:00 17,8 C 98 % 1012,6 hPa 0,0 l/m N 0,00 h 45 W/m 0,0 km/h (0 Bft)
07.07.2015 07:00 19,7 C 93 % 1012,3 hPa 0,0 l/m N 0,50 h 162 W/m 0,0 km/h (0 Bft)
07.07.2015 08:00 22,6 C 84 % 1012,0 hPa 0,0 l/m N 0,92 h 303 W/m 0,0 km/h (0 Bft)
07.07.2015 09:00 23,8 C 82 % 1011,8 hPa 0,0 l/m SW 0,42 h 250 W/m 5,5 km/h (1 Bft)
07.07.2015 10:00 26,1 C 76 % 1011,2 hPa 0,0 l/m S-SO 1,00 h 627 W/m 9,0 km/h (2 Bft)
07.07.2015 11:00 28,2 C 71 % 1010,5 hPa 0,0 l/m S-SO 1,00 h 732 W/m 14,0 km/h (3 Bft)
07.07.2015 12:00 29,9 C 61 % 1009,9 hPa 0,0 l/m W-SW 1,00 h 829 W/m 22,2 km/h (4 Bft)
07.07.2015 13:00 31,0 C 54 % 1009,5 hPa 0,0 l/m W-SW 1,00 h 866 W/m 25,2 km/h (4 Bft)
07.07.2015 14:00 31,6 C 49 % 1009,2 hPa 0,0 l/m W 1,00 h 824 W/m 27,5 km/h (4 Bft)
07.07.2015 15:00 32,2 C 46 % 1008,5 hPa 0,0 l/m W 1,00 h 754 W/m 22,0 km/h (4 Bft)
07.07.2015 16:00 32,9 C 45 % 1007,6 hPa 0,0 l/m W-SW 1,00 h 663 W/m 18,6 km/h (3 Bft)
07.07.2015 17:00 33,1 C 44 % 1006,6 hPa 0,0 l/m SW 1,00 h 537 W/m 16,4 km/h (3 Bft)
07.07.2015 18:00 32,7 C 46 % 1005,6 hPa 0,0 l/m S-SW 1,00 h 375 W/m 9,5 km/h (2 Bft)
07.07.2015 19:00 30,4 C 57 % 1004,4 hPa 0,0 l/m SW 0,42 h 130 W/m 4,8 km/h (1 Bft)
07.07.2015 20:00 27,3 C 67 % 1004,2 hPa 0,0 l/m SW 0,00 h 36 W/m 2,3 km/h (1 Bft)
07.07.2015 21:00 27,2 C 61 % 1004,1 hPa 0,0 l/m W-SW 0,00 h 7 W/m 12,2 km/h (2 Bft)
07.07.2015 22:00 27,9 C 56 % 1004,9 hPa 0,0 l/m W 0,00 h 0 W/m 17,4 km/h (3 Bft)
07.07.2015 23:00 26,4 C 64 % 1005,4 hPa 0,6 l/m W 0,00 h 0 W/m 14,9 km/h (3 Bft)
08.07.2015 00:00 22,2 C 86 % 1006,1 hPa 0,8 l/m W-NW 0,00 h 0 W/m 5,6 km/h (1 Bft)
08.07.2015 01:00 21,0 C 87 % 1006,8 hPa 0,0 l/m W-NW 0,00 h 0 W/m 7,2 km/h (2 Bft)
08.07.2015 02:00 20,9 C 80 % 1007,8 hPa 0,0 l/m W 0,00 h 0 W/m 8,2 km/h (2 Bft)
08.07.2015 03:00 20,8 C 71 % 1008,1 hPa 0,0 l/m W 0,00 h 0 W/m 10,1 km/h (2 Bft)
08.07.2015 04:00 20,4 C 66 % 1008,4 hPa 0,0 l/m W-NW 0,00 h 0 W/m 8,1 km/h (2 Bft)
08.07.2015 05:00 19,1 C 75 % 1008,5 hPa 0,0 l/m W-NW 0,00 h 6 W/m 2,8 km/h (1 Bft)
08.07.2015 06:00 18,5 C 83 % 1008,2 hPa 0,0 l/m W 0,00 h 26 W/m 5,5 km/h (1 Bft)
08.07.2015 07:00 18,9 C 86 % 1007,9 hPa 0,2 l/m W-SW 0,00 h 32 W/m 8,7 km/h (2 Bft)
08.07.2015 08:00 19,4 C 84 % 1007,9 hPa 0,0 l/m SW 0,00 h 75 W/m 13,6 km/h (3 Bft)
08.07.2015 09:00 18,3 C 82 % 1008,6 hPa 0,2 l/m N 0,00 h 44 W/m 18,5 km/h (3 Bft)
08.07.2015 10:00 16,9 C 86 % 1009,3 hPa 0,0 l/m N-NW 0,00 h 85 W/m 14,5 km/h (3 Bft)
08.07.2015 11:00 18,1 C 80 % 1009,7 hPa 0,0 l/m W-NW 0,00 h 152 W/m 10,9 km/h (2 Bft)
08.07.2015 12:00 18,2 C 79 % 1010,3 hPa 0,0 l/m NW 0,00 h 127 W/m 12,2 km/h (2 Bft)
08.07.2015 13:00 18,5 C 74 % 1010,6 hPa 0,0 l/m W-NW 0,00 h 266 W/m 17,2 km/h (3 Bft)
08.07.2015 14:00 19,7 C 66 % 1010,5 hPa 0,0 l/m W 0,08 h 325 W/m 19,6 km/h (3 Bft)
08.07.2015 15:00 19,4 C 65 % 1010,8 hPa 0,0 l/m W-NW 0,00 h 223 W/m 18,5 km/h (3 Bft)
08.07.2015 16:00 21,8 C 53 % 1010,6 hPa 0,0 l/m W-SW 0,92 h 732 W/m 28,0 km/h (4 Bft)
08.07.2015 17:00 22,4 C 49 % 1010,4 hPa 0,0 l/m N-NW 1,00 h 537 W/m 23,1 km/h (4 Bft)
08.07.2015 18:00 22,0 C 49 % 1010,5 hPa 0,0 l/m W-NW 1,00 h 390 W/m 18,5 km/h (3 Bft)
08.07.2015 19:00 20,8 C 52 % 1011,2 hPa 0,0 l/m N-NW 1,00 h 212 W/m 18,2 km/h (3 Bft)
08.07.2015 20:00 18,8 C 58 % 1011,8 hPa 0,0 l/m NW 0,08 h 35 W/m 10,9 km/h (2 Bft)
08.07.2015 21:00 17,4 C 63 % 1012,7 hPa 0,0 l/m NW 0,00 h 9 W/m 6,5 km/h (2 Bft)
08.07.2015 22:00 16,5 C 68 % 1013,4 hPa 0,0 l/m NW 0,00 h 0 W/m 3,7 km/h (1 Bft)
08.07.2015 23:00 16,4 C 67 % 1014,1 hPa 0,0 l/m W 0,00 h 0 W/m 9,7 km/h (2 Bft)
09.07.2015 00:00 16,3 C 66 % 1014,5 hPa 0,0 l/m W-NW 0,00 h 0 W/m 8,7 km/h (2 Bft)
09.07.2015 01:00 15,9 C 67 % 1014,8 hPa 0,0 l/m W 0,00 h 0 W/m 5,9 km/h (2 Bft)
09.07.2015 02:00 15,6 C 68 % 1014,8 hPa 0,0 l/m W-SW 0,00 h 0 W/m 6,8 km/h (2 Bft)
09.07.2015 03:00 15,2 C 69 % 1014,7 hPa 0,0 l/m W-SW 0,00 h 0 W/m 7,6 km/h (2 Bft)
09.07.2015 04:00 15,0 C 69 % 1014,7 hPa 0,0 l/m W-SW 0,00 h 0 W/m 8,4 km/h (2 Bft)
09.07.2015 05:00 14,8 C 72 % 1015,0 hPa 0,0 l/m W-SW 0,00 h 5 W/m 6,3 km/h (2 Bft)
09.07.2015 06:00 14,6 C 74 % 1015,3 hPa 0,0 l/m W-SW 0,00 h 21 W/m 8,6 km/h (2 Bft)
09.07.2015 07:00 14,9 C 73 % 1015,6 hPa 0,0 l/m W-SW 0,00 h 69 W/m 10,4 km/h (2 Bft)
09.07.2015 08:00 15,3 C 72 % 1015,9 hPa 0,0 l/m W-SW 0,00 h 74 W/m 13,2 km/h (3 Bft)
09.07.2015 09:00 15,6 C 70 % 1016,5 hPa 0,0 l/m W 0,00 h 149 W/m 15,6 km/h (3 Bft)
09.07.2015 10:00 16,7 C 68 % 1016,6 hPa 0,0 l/m W 0,00 h 222 W/m 15,4 km/h (3 Bft)
09.07.2015 11:00 16,3 C 72 % 1017,1 hPa 0,2 l/m W-SW 0,17 h 241 W/m 14,8 km/h (3 Bft)
09.07.2015 12:00 16,8 C 69 % 1017,4 hPa 0,0 l/m W-NW 0,25 h 405 W/m 17,4 km/h (3 Bft)
09.07.2015 13:00 18,7 C 59 % 1017,4 hPa 0,0 l/m W-NW 0,75 h 768 W/m 21,8 km/h (4 Bft)
09.07.2015 14:00 19,2 C 55 % 1017,4 hPa 0,0 l/m W-NW 0,50 h 589 W/m 22,9 km/h (4 Bft)
09.07.2015 15:00 19,1 C 53 % 1017,6 hPa 0,0 l/m N 0,08 h 281 W/m 19,0 km/h (3 Bft)
09.07.2015 16:00 18,7 C 54 % 1017,9 hPa 0,0 l/m N-NW 0,00 h 206 W/m 17,6 km/h (3 Bft)
09.07.2015 17:00 18,5 C 55 % 1018,1 hPa 0,0 l/m N-NW 0,08 h 178 W/m 9,9 km/h (2 Bft)
09.07.2015 18:00 18,9 C 54 % 1018,2 hPa 0,0 l/m N-NW 0,08 h 181 W/m 12,4 km/h (3 Bft)
09.07.2015 19:00 18,1 C 55 % 1018,7 hPa 0,0 l/m N 0,08 h 103 W/m 11,8 km/h (2 Bft)
09.07.2015 20:00 17,5 C 58 % 1019,2 hPa 0,0 l/m N-NO 0,17 h 51 W/m 8,2 km/h (2 Bft)
09.07.2015 21:00 15,6 C 68 % 1019,8 hPa 0,0 l/m N-NO 0,08 h 10 W/m 2,4 km/h (1 Bft)
09.07.2015 22:00 13,3 C 79 % 1020,3 hPa 0,0 l/m N 0,00 h 0 W/m 0,0 km/h (0 Bft)
09.07.2015 23:00 12,1 C 85 % 1020,7 hPa 0,0 l/m N 0,00 h 0 W/m 0,1 km/h (0 Bft)
10.07.2015 00:00 12,1 C 86 % 1021,0 hPa 0,0 l/m N 0,00 h 0 W/m 0,0 km/h (0 Bft)
10.07.2015 01:00 11,1 C 89 % 1021,2 hPa 0,0 l/m N 0,00 h 0 W/m 0,0 km/h (0 Bft)
10.07.2015 02:00 10,7 C 91 % 1021,2 hPa 0,0 l/m N-NO 0,00 h 0 W/m 0,8 km/h (0 Bft)
10.07.2015 03:00 10,7 C 88 % 1021,2 hPa 0,0 l/m N-NO 0,00 h 0 W/m 6,7 km/h (2 Bft)
10.07.2015 04:00 9,9 C 89 % 1021,0 hPa 0,0 l/m N-NO 0,00 h 0 W/m 3,2 km/h (1 Bft)
10.07.2015 05:00 9,3 C 90 % 1021,1 hPa 0,0 l/m N-NO 0,08 h 9 W/m 2,0 km/h (1 Bft)
10.07.2015 06:00 9,8 C 89 % 1021,2 hPa 0,0 l/m N-NO 0,00 h 49 W/m 1,1 km/h (0 Bft)
10.07.2015 07:00 11,7 C 83 % 1021,5 hPa 0,0 l/m N-NO 0,67 h 182 W/m 5,3 km/h (1 Bft)
10.07.2015 08:00 14,2 C 72 % 1021,4 hPa 0,0 l/m NO 1,00 h 351 W/m 9,4 km/h (2 Bft)
10.07.2015 09:00 16,1 C 63 % 1021,3 hPa 0,0 l/m O-NO 1,00 h 520 W/m 12,9 km/h (3 Bft)
10.07.2015 10:00 18,0 C 58 % 1021,1 hPa 0,0 l/m O-NO 1,00 h 671 W/m 10,6 km/h (2 Bft)
10.07.2015 11:00 18,9 C 54 % 1020,7 hPa 0,0 l/m NO 1,00 h 791 W/m 8,6 km/h (2 Bft)
10.07.2015 12:00 20,0 C 49 % 1020,2 hPa 0,0 l/m O-NO 1,00 h 874 W/m 9,9 km/h (2 Bft)
10.07.2015 13:00 21,3 C 46 % 1019,8 hPa 0,0 l/m O-NO 1,00 h 905 W/m 11,3 km/h (2 Bft)
10.07.2015 14:00 22,4 C 43 % 1019,3 hPa 0,0 l/m O-NO 1,00 h 891 W/m 12,0 km/h (2 Bft)
10.07.2015 15:00 23,5 C 40 % 1018,7 hPa 0,0 l/m O 1,00 h 831 W/m 13,4 km/h (3 Bft)
10.07.2015 16:00 24,1 C 38 % 1018,2 hPa 0,0 l/m O-NO 1,00 h 731 W/m 9,7 km/h (2 Bft)
10.07.2015 17:00 24,6 C 35 % 1017,7 hPa 0,0 l/m O 1,00 h 592 W/m 12,2 km/h (2 Bft)
10.07.2015 18:00 24,2 C 33 % 1017,3 hPa 0,0 l/m O 1,00 h 429 W/m 12,0 km/h (2 Bft)
10.07.2015 19:00 23,3 C 35 % 1017,3 hPa 0,0 l/m O-SO 1,00 h 252 W/m 8,7 km/h (2 Bft)
10.07.2015 20:00 21,3 C 46 % 1017,2 hPa 0,0 l/m O-SO 0,08 h 31 W/m 8,3 km/h (2 Bft)
10.07.2015 21:00 18,4 C 59 % 1017,2 hPa 0,0 l/m N 0,00 h 7 W/m 1,1 km/h (0 Bft)
10.07.2015 22:00 15,4 C 70 % 1017,4 hPa 0,0 l/m N 0,00 h 0 W/m 0,5 km/h (0 Bft)
10.07.2015 23:00 14,1 C 74 % 1017,4 hPa 0,0 l/m N 0,00 h 0 W/m 1,3 km/h (1 Bft)
11.07.2015 00:00 13,5 C 75 % 1017,0 hPa 0,0 l/m O-SO 0,00 h 0 W/m 0,7 km/h (0 Bft)
11.07.2015 01:00 13,4 C 73 % 1016,8 hPa 0,0 l/m O-SO 0,00 h 0 W/m 2,9 km/h (1 Bft)
11.07.2015 02:00 13,0 C 75 % 1016,3 hPa 0,0 l/m O 0,00 h 0 W/m 3,6 km/h (1 Bft)
11.07.2015 03:00 12,2 C 80 % 1015,8 hPa 0,0 l/m N 0,00 h 0 W/m 1,3 km/h (1 Bft)
11.07.2015 04:00 11,4 C 85 % 1015,3 hPa 0,0 l/m N 0,00 h 0 W/m 0,9 km/h (0 Bft)
11.07.2015 05:00 10,5 C 89 % 1015,2 hPa 0,0 l/m N 0,00 h 8 W/m 0,0 km/h (0 Bft)
11.07.2015 06:00 11,0 C 89 % 1015,4 hPa 0,0 l/m N 0,00 h 46 W/m 0,0 km/h (0 Bft)
11.07.2015 07:00 12,6 C 85 % 1015,2 hPa 0,0 l/m O-NO 0,75 h 177 W/m 2,3 km/h (1 Bft)
11.07.2015 08:00 15,8 C 77 % 1015,2 hPa 0,0 l/m O-NO 1,00 h 327 W/m 2,9 km/h (1 Bft)
11.07.2015 09:00 19,6 C 71 % 1015,2 hPa 0,0 l/m SW 1,00 h 475 W/m 7,6 km/h (2 Bft)
11.07.2015 10:00 22,1 C 63 % 1014,9 hPa 0,0 l/m SW 1,00 h 600 W/m 17,6 km/h (3 Bft)
11.07.2015 11:00 24,5 C 56 % 1014,7 hPa 0,0 l/m W-SW 1,00 h 757 W/m 23,5 km/h (4 Bft)
11.07.2015 12:00 25,9 C 51 % 1014,4 hPa 0,0 l/m W-SW 1,00 h 799 W/m 22,4 km/h (4 Bft)
11.07.2015 13:00 27,1 C 49 % 1014,0 hPa 0,0 l/m W 1,00 h 855 W/m 23,1 km/h (4 Bft)
11.07.2015 14:00 28,3 C 46 % 1013,7 hPa 0,0 l/m W 1,00 h 832 W/m 26,7 km/h (4 Bft)
11.07.2015 15:00 28,9 C 42 % 1013,4 hPa 0,0 l/m W-SW 0,75 h 654 W/m 27,5 km/h (4 Bft)
11.07.2015 16:00 28,6 C 38 % 1013,5 hPa 0,0 l/m W-NW 0,08 h 212 W/m 16,8 km/h (3 Bft)
11.07.2015 17:00 29,1 C 35 % 1013,5 hPa 0,0 l/m W-NW 0,75 h 523 W/m 23,5 km/h (4 Bft)
11.07.2015 18:00 28,8 C 34 % 1013,6 hPa 0,0 l/m W 0,92 h 366 W/m 24,3 km/h (4 Bft)
11.07.2015 19:00 27,5 C 39 % 1013,8 hPa 0,0 l/m W-NW 0,83 h 197 W/m 11,7 km/h (2 Bft)
11.07.2015 20:00 25,4 C 43 % 1014,3 hPa 0,0 l/m W-NW 0,08 h 32 W/m 6,8 km/h (2 Bft)
11.07.2015 21:00 22,5 C 54 % 1014,8 hPa 0,0 l/m N 0,00 h 8 W/m 3,1 km/h (1 Bft)
11.07.2015 22:00 19,4 C 67 % 1015,2 hPa 0,0 l/m N 0,00 h 0 W/m 0,7 km/h (0 Bft)
11.07.2015 23:00 18,0 C 72 % 1015,6 hPa 0,0 l/m N 0,00 h 0 W/m 0,1 km/h (0 Bft)
12.07.2015 00:00 16,8 C 76 % 1015,7 hPa 0,0 l/m N 0,00 h 0 W/m 0,0 km/h (0 Bft)
12.07.2015 01:00 15,6 C 81 % 1015,6 hPa 0,0 l/m N 0,00 h 0 W/m 0,0 km/h (0 Bft)
12.07.2015 02:00 14,7 C 86 % 1015,5 hPa 0,0 l/m N 0,00 h 0 W/m 0,0 km/h (0 Bft)
12.07.2015 03:00 14,0 C 89 % 1015,5 hPa 0,0 l/m N 0,00 h 0 W/m 0,1 km/h (0 Bft)
12.07.2015 04:00 13,3 C 90 % 1015,4 hPa 0,0 l/m N 0,00 h 0 W/m 0,0 km/h (0 Bft)
12.07.2015 05:00 12,8 C 91 % 1015,5 hPa 0,0 l/m N 0,00 h 7 W/m 0,7 km/h (0 Bft)
12.07.2015 06:00 13,0 C 91 % 1015,6 hPa 0,0 l/m N 0,00 h 42 W/m 0,0 km/h (0 Bft)
12.07.2015 07:00 14,9 C 87 % 1015,6 hPa 0,0 l/m N 0,67 h 170 W/m 0,0 km/h (0 Bft)
12.07.2015 08:00 18,8 C 73 % 1015,8 hPa 0,0 l/m W-NW 1,00 h 331 W/m 3,1 km/h (1 Bft)
12.07.2015 09:00 21,8 C 56 % 1015,8 hPa 0,0 l/m W 0,92 h 460 W/m 6,4 km/h (2 Bft)
12.07.2015 10:00 23,5 C 52 % 1015,7 hPa 0,0 l/m SW 1,00 h 615 W/m 6,4 km/h (2 Bft)
12.07.2015 11:00 24,8 C 50 % 1015,4 hPa 0,0 l/m SW 0,75 h 608 W/m 8,4 km/h (2 Bft)
12.07.2015 12:00 25,1 C 51 % 1015,0 hPa 0,0 l/m SW 0,58 h 572 W/m 10,2 km/h (2 Bft)
12.07.2015 13:00 26,1 C 45 % 1014,5 hPa 0,0 l/m W-NW 0,42 h 543 W/m 14,5 km/h (3 Bft)
12.07.2015 14:00 26,9 C 44 % 1014,0 hPa 0,0 l/m W-SW 0,83 h 698 W/m 18,6 km/h (3 Bft)
12.07.2015 15:00 27,4 C 44 % 1013,5 hPa 0,0 l/m W-SW 0,67 h 604 W/m 15,2 km/h (3 Bft)
12.07.2015 16:00 28,1 C 41 % 1013,1 hPa 0,0 l/m W 0,92 h 683 W/m 17,2 km/h (3 Bft)
12.07.2015 17:00 28,4 C 41 % 1012,7 hPa 0,0 l/m W 0,75 h 475 W/m 14,8 km/h (3 Bft)
12.07.2015 18:00 26,2 C 46 % 1013,0 hPa 0,0 l/m N 0,08 h 150 W/m 15,8 km/h (3 Bft)
12.07.2015 19:00 24,8 C 50 % 1013,7 hPa 0,0 l/m N 0,42 h 124 W/m 17,0 km/h (3 Bft)
12.07.2015 20:00 22,7 C 56 % 1014,3 hPa 0,0 l/m N-NW 0,00 h 17 W/m 12,5 km/h (3 Bft)
12.07.2015 21:00 21,1 C 56 % 1015,3 hPa 0,0 l/m N 0,00 h 6 W/m 16,2 km/h (3 Bft)
12.07.2015 22:00 19,9 C 59 % 1016,1 hPa 0,0 l/m N-NO 0,00 h 0 W/m 9,0 km/h (2 Bft)
12.07.2015 23:00 18,4 C 70 % 1016,2 hPa 0,0 l/m N-NO 0,00 h 0 W/m 2,0 km/h (1 Bft)
Min-Datum _ 10.07.15 10.07.15 07.07.15 - - - - 06.07.15
_ Min-Zeit 05:20 18:30 20:15 - - - - 03:15
Minimum _ 9,2 C 31 % 1003,9 hPa - - - - 0,0 km/h (0 Bft)
Max-Datum _ 07.07.15 07.07.15 10.07.15 06.07.15 - 06.07.15 12.07.15 08.07.15
_ Max-Zeit 16:55 06:00 07:35 02:45 - 07:40 13:10 16:20
Maximum _ 33,2 C 98 % 1021,6 hPa 0,8 l/m - 0,08 h 1058 W/m 38,6 km/h
W (5 Bft)
Durchschnitt _ 20,5 C 68 % 1014,5 hPa #3,2 l/m W-SW #57:00 h 340 W/m 9,1 km/h (2 Bft)